Angel Fire, NM (87710)

10:04 PM MDT on July 27, 2015 (GMT -0600)
NW face of Angel Fire Ski Mountain | | Change Station
CLOSE
Current Station
Personal Weather Station
Location: Angel Fire, NM
Elevation: 8907 ft
Nearby Weather Stations

Elev 8907 ft 36.39 °N, 105.26 °W | Updated 20 days ago

Partly Cloudy
Partly Cloudy
60 °F
Feels Like 60 °F
N
4
Wind Variable Wind from WSW
Gusts mph

Today
High -- | Low -- °F
--% Chance of Precip.
Yesterday
High -- | Low -- °F
Precip. -- in
6:03 AM 8:11 PM
Waxing Gibbous, 86% visible
Pressure 30.32 in
Visibility 10.0 miles
Clouds Clear
Dew Point 46 °F
Humidity 60%
Rainfall in
Snow Depth Not available.
UV 0.5 out of 12
Pollen 6.10 out of 12
Air Quality Not available.
Flu Activity Not available.
METAR KAXX 280355Z AUTO 00000KT 10SM CLR 12/08 A3032 RMK AO2 T01150082

More Conditions Fewer Conditions

Pressure 30.32 in
Visibility 10.0 miles
Clouds Clear
Dew Point 46 °F
Humidity 60%
Rainfall in
Snow Depth Not available.
UV 0.5 out of 12
Pollen 6.10 out of 12
Air Quality Not available.
Flu Activity Not available.
METAR KAXX 280355Z AUTO 00000KT 10SM CLR 12/08 A3032 RMK AO2 T01150082

More Conditions Fewer Conditions

10-Day Weather Forecast

×

Almanac

Astronomy

Jul. 27, 2015 Rise Set
Actual Time
Civil Twilight
Nautical Twilight
Astronomical Twilight
Moon
Length of Visible Light
Length of Day
Tomorrow will be .
, % of the Moon is Illuminated

Today's Extremes

State Highs State Lows

Community

WunderPhotos

Upload Photos

1,841,787 photos uploaded!

WunderBlogs® & News

Nearby

Air Quality

  Air Quality AQ Index Pollutant
Not available.

Snow Depth

Station Depth Elevation

Earthquake Activity

City Distance Mag. Time & Date
Minimum magnitude displayed is 2.5.

Coastal Water Temperatures

Place Temperature

Stations

Nearby Weather Stations

Station Location Temp. Windchill Dew Point Humidity Wind Precip. Elev Updated Type